createdAt,value
2018-05-09T00:02:03.060Z,12.30
2018-05-09T00:04:29.475Z,12.50
2018-05-09T00:06:55.960Z,12.50
2018-05-09T00:09:22.441Z,12.60
2018-05-09T00:11:48.903Z,12.80
2018-05-09T00:14:15.530Z,12.90
2018-05-09T00:16:42.706Z,13.20
2018-05-09T00:19:09.957Z,13.40
2018-05-09T00:21:37.239Z,13.70
2018-05-09T00:24:03.673Z,13.70
2018-05-09T00:26:30.104Z,13.80
2018-05-09T00:28:56.576Z,13.80
2018-05-09T00:31:23.092Z,13.80
2018-05-09T00:33:49.560Z,13.90
2018-05-09T00:36:16.043Z,14.00
2018-05-09T00:38:42.491Z,14.10
2018-05-09T00:41:09.691Z,14.00
2018-05-09T00:43:36.907Z,14.10
2018-05-09T00:46:03.369Z,14.10
2018-05-09T00:48:30.547Z,14.10
2018-05-09T00:50:57.056Z,14.10
2018-05-09T00:53:24.341Z,14.10
2018-05-09T00:55:50.771Z,14.00
2018-05-09T00:58:17.395Z,14.00
2018-05-09T01:00:43.824Z,14.00
2018-05-09T01:03:10.285Z,14.00
2018-05-09T01:05:36.706Z,14.10
2018-05-09T01:08:03.178Z,14.10
2018-05-09T01:10:29.628Z,14.10
2018-05-09T01:12:56.149Z,14.10
2018-05-09T01:15:22.580Z,14.00
2018-05-09T01:17:48.982Z,13.90
2018-05-09T01:20:15.451Z,13.80
2018-05-09T01:22:41.896Z,13.80
2018-05-09T01:25:08.347Z,13.80
2018-05-09T01:27:34.769Z,13.80
2018-05-09T01:30:02.031Z,13.80
2018-05-09T01:32:29.171Z,13.70
2018-05-09T01:34:56.381Z,13.70
2018-05-09T01:37:22.853Z,13.60
2018-05-09T01:39:50.034Z,13.70
2018-05-09T01:42:16.462Z,13.70
2018-05-09T01:44:42.901Z,13.70
2018-05-09T01:47:09.316Z,13.70
2018-05-09T01:49:35.763Z,13.60
2018-05-09T01:52:02.218Z,13.60
2018-05-09T01:54:28.626Z,13.60
2018-05-09T01:56:55.057Z,13.50
2018-05-09T01:59:21.528Z,13.50
2018-05-09T02:01:48.127Z,13.60
2018-05-09T02:04:14.618Z,13.60
2018-05-09T02:06:41.013Z,13.60
2018-05-09T02:09:07.494Z,13.50
2018-05-09T02:11:34.696Z,13.40
2018-05-09T02:14:01.124Z,13.40
2018-05-09T02:16:27.605Z,13.40
2018-05-09T02:18:53.992Z,13.30
2018-05-09T02:21:20.472Z,13.30
2018-05-09T02:23:47.639Z,13.20
2018-05-09T02:26:14.034Z,13.20
2018-05-09T02:28:40.496Z,13.10
2018-05-09T02:31:07.721Z,12.90
2018-05-09T02:33:34.800Z,13.00
2018-05-09T02:36:01.997Z,12.90
2018-05-09T02:38:28.560Z,12.90
2018-05-09T02:40:54.996Z,12.80
2018-05-09T02:43:21.472Z,12.80
2018-05-09T02:45:47.914Z,12.80
2018-05-09T02:48:14.430Z,12.80
2018-05-09T02:50:40.867Z,12.90
2018-05-09T02:53:07.371Z,12.90
2018-05-09T02:55:34.753Z,12.70
2018-05-09T02:58:01.156Z,12.70
2018-05-09T03:00:28.353Z,12.50
2018-05-09T03:02:54.848Z,12.40
2018-05-09T03:05:22.094Z,12.40
2018-05-09T03:07:49.291Z,12.30
2018-05-09T03:10:15.759Z,12.30
2018-05-09T03:12:42.139Z,12.20
2018-05-09T03:15:08.572Z,12.10
2018-05-09T03:17:35.006Z,12.00
2018-05-09T03:20:01.392Z,11.90
2018-05-09T03:22:27.940Z,11.90
2018-05-09T03:24:54.287Z,11.80
2018-05-09T03:27:20.760Z,11.70
2018-05-09T03:29:47.268Z,11.70
2018-05-09T03:32:13.612Z,11.60
2018-05-09T03:34:40.066Z,11.60
2018-05-09T03:37:06.488Z,11.40
2018-05-09T03:39:32.973Z,11.40
2018-05-09T03:42:00.188Z,11.20
2018-05-09T03:44:26.664Z,11.20
2018-05-09T03:46:53.116Z,11.20
2018-05-09T03:49:19.579Z,11.10
2018-05-09T03:51:46.020Z,11.00
2018-05-09T03:54:12.468Z,11.00
2018-05-09T03:56:38.864Z,11.00
2018-05-09T03:59:05.284Z,10.90
2018-05-09T04:01:43.984Z,10.80
2018-05-09T04:04:22.547Z,10.80
2018-05-09T04:07:01.212Z,10.80
2018-05-09T04:09:39.759Z,10.60
2018-05-09T04:12:06.144Z,10.80
2018-05-09T04:14:33.341Z,10.60
2018-05-09T04:16:59.795Z,10.60
2018-05-09T04:19:26.303Z,10.60
2018-05-09T04:21:52.732Z,10.70
2018-05-09T04:24:19.428Z,10.80
2018-05-09T04:26:46.608Z,10.60
2018-05-09T04:29:13.023Z,10.60
2018-05-09T04:31:40.271Z,10.70
2018-05-09T04:34:07.444Z,10.50
2018-05-09T04:36:33.827Z,10.50
2018-05-09T04:39:00.283Z,10.50
2018-05-09T04:41:27.507Z,10.60
2018-05-09T04:43:53.948Z,10.60
2018-05-09T04:46:20.445Z,10.70
2018-05-09T04:48:46.912Z,10.70
2018-05-09T04:51:14.077Z,10.80
2018-05-09T04:53:41.367Z,10.80
2018-05-09T04:56:07.792Z,10.80
2018-05-09T04:58:34.220Z,10.90
2018-05-09T05:01:00.611Z,10.90
2018-05-09T05:03:27.148Z,11.00
2018-05-09T05:05:53.590Z,11.10
2018-05-09T05:08:20.832Z,11.10
2018-05-09T05:10:47.325Z,11.10
2018-05-09T05:13:13.772Z,11.20
2018-05-09T05:15:40.245Z,11.30
2018-05-09T05:18:07.493Z,11.60
2018-05-09T05:20:34.645Z,11.70
2018-05-09T05:23:02.080Z,11.70
2018-05-09T05:25:28.517Z,11.70
2018-05-09T05:27:54.975Z,11.80
2018-05-09T05:30:22.231Z,12.30
2018-05-09T05:32:48.694Z,12.30
2018-05-09T05:35:15.905Z,13.00
2018-05-09T05:37:43.068Z,13.50
2018-05-09T05:40:09.475Z,13.50
2018-05-09T05:42:35.899Z,13.90
2018-05-09T05:45:02.389Z,14.10
2018-05-09T05:47:28.961Z,14.30
2018-05-09T05:49:55.413Z,14.60
2018-05-09T05:55:18.829Z,14.90
2018-05-09T05:57:45.195Z,15.00
2018-05-09T06:00:11.647Z,15.00
2018-05-09T06:02:38.987Z,15.50
2018-05-09T06:05:05.392Z,15.70
2018-05-09T06:07:31.818Z,16.00
2018-05-09T06:09:58.248Z,16.30
2018-05-09T06:12:24.701Z,16.70
2018-05-09T06:14:51.128Z,17.30
2018-05-09T06:17:17.623Z,18.10
2018-05-09T06:19:44.049Z,19.30
2018-05-09T06:22:11.304Z,21.00
2018-05-09T06:24:38.510Z,21.90
2018-05-09T06:27:04.951Z,21.90
2018-05-09T06:29:31.464Z,22.60
2018-05-09T06:31:57.912Z,22.90
2018-05-09T06:34:24.359Z,22.20
2018-05-09T06:36:50.799Z,23.30
2018-05-09T06:39:17.340Z,24.40
2018-05-09T06:41:44.495Z,24.40
2018-05-09T06:44:10.949Z,24.40
2018-05-09T06:46:37.389Z,24.30
2018-05-09T06:49:03.836Z,24.30
2018-05-09T06:51:30.271Z,25.40
2018-05-09T06:53:56.707Z,26.10
2018-05-09T06:56:23.132Z,25.70
2018-05-09T06:58:49.543Z,25.20
2018-05-09T07:01:15.967Z,25.60
2018-05-09T07:03:42.412Z,26.40
2018-05-09T07:06:08.873Z,25.10
2018-05-09T07:08:35.287Z,24.60
2018-05-09T07:11:01.672Z,22.90
2018-05-09T07:13:28.248Z,22.10
2018-05-09T07:15:54.680Z,23.20
2018-05-09T07:18:21.076Z,24.90
2018-05-09T07:20:48.345Z,22.30
2018-05-09T07:23:15.712Z,21.90
2018-05-09T07:25:42.020Z,21.90
2018-05-09T07:30:42.232Z,22.50
2018-05-09T07:33:08.676Z,22.40
2018-05-09T07:35:35.947Z,23.80
2018-05-09T07:38:02.320Z,23.80
2018-05-09T07:40:28.758Z,24.20
2018-05-09T07:42:55.164Z,24.70
2018-05-09T07:45:21.607Z,25.70
2018-05-09T07:47:48.200Z,26.80
2018-05-09T07:50:14.496Z,26.50
2018-05-09T07:52:41.016Z,26.30
2018-05-09T07:55:07.472Z,27.50
2018-05-09T07:57:33.910Z,27.30
2018-05-09T08:00:00.323Z,26.40
2018-05-09T08:02:26.727Z,28.00
2018-05-09T08:04:53.164Z,29.80
2018-05-09T08:07:19.560Z,30.30
2018-05-09T08:09:46.772Z,26.10
2018-05-09T08:12:13.217Z,26.10
2018-05-09T08:14:39.783Z,26.70
2018-05-09T08:17:06.931Z,28.10
2018-05-09T08:19:34.079Z,29.40
2018-05-09T08:22:01.249Z,29.70
2018-05-09T08:24:27.689Z,29.60
2018-05-09T08:26:54.091Z,29.60
2018-05-09T08:29:21.335Z,28.80
2018-05-09T08:31:48.544Z,28.90
2018-05-09T08:34:14.936Z,28.90
2018-05-09T08:36:41.493Z,29.00
2018-05-09T08:39:07.832Z,28.80
2018-05-09T08:41:34.266Z,28.50
2018-05-09T08:44:00.762Z,25.90
2018-05-09T08:46:27.303Z,24.80
2018-05-09T08:48:53.716Z,25.20
2018-05-09T08:51:21.005Z,24.40
2018-05-09T08:53:47.463Z,24.40
2018-05-09T08:56:13.889Z,24.10
2018-05-09T08:58:40.392Z,23.70
2018-05-09T09:01:06.798Z,24.30
2018-05-09T09:03:33.996Z,25.10
2018-05-09T09:06:00.412Z,25.00
2018-05-09T09:08:26.927Z,24.80
2018-05-09T09:10:54.139Z,24.80
2018-05-09T09:13:20.550Z,24.80
2018-05-09T09:15:46.954Z,24.30
2018-05-09T09:18:13.510Z,23.60
2018-05-09T09:20:39.921Z,23.10
2018-05-09T09:23:06.335Z,23.10
2018-05-09T09:25:33.630Z,23.70
2018-05-09T09:28:00.065Z,23.70
2018-05-09T09:30:26.576Z,24.60
2018-05-09T09:32:52.963Z,23.50
2018-05-09T09:35:19.468Z,23.50
2018-05-09T09:37:45.907Z,24.20
2018-05-09T09:40:12.416Z,25.40
2018-05-09T09:42:38.812Z,26.10
2018-05-09T09:45:05.985Z,27.30
2018-05-09T09:47:32.404Z,27.30
2018-05-09T09:49:59.545Z,28.40
2018-05-09T09:52:26.751Z,28.10
2018-05-09T09:54:53.152Z,28.10
2018-05-09T09:57:19.584Z,27.50
2018-05-09T09:59:46.003Z,26.70
2018-05-09T10:02:13.172Z,27.20
2018-05-09T10:04:39.598Z,27.10
2018-05-09T10:07:06.041Z,26.50
2018-05-09T10:09:32.527Z,27.10
2018-05-09T10:11:58.950Z,25.30
2018-05-09T10:14:25.369Z,24.30
2018-05-09T10:16:52.587Z,24.80
2018-05-09T10:19:19.076Z,24.70
2018-05-09T10:21:45.553Z,23.90
2018-05-09T10:24:11.967Z,24.80
2018-05-09T10:26:38.446Z,24.90
2018-05-09T10:29:04.878Z,24.20
2018-05-09T10:31:31.416Z,24.50
2018-05-09T10:33:58.619Z,23.80
2018-05-09T10:36:25.046Z,23.70
2018-05-09T10:38:51.624Z,22.80
2018-05-09T10:41:18.032Z,22.70
2018-05-09T10:43:44.474Z,23.60
2018-05-09T10:46:10.877Z,24.70
2018-05-09T10:48:37.336Z,24.80
2018-05-09T10:51:03.716Z,25.50
2018-05-09T10:53:30.165Z,25.90
2018-05-09T10:55:57.332Z,25.40
2018-05-09T10:58:23.775Z,25.40
2018-05-09T11:00:50.975Z,24.90
2018-05-09T11:03:17.360Z,24.90
2018-05-09T11:05:43.805Z,25.80
2018-05-09T11:08:10.277Z,26.60
2018-05-09T11:10:36.818Z,27.50
2018-05-09T11:13:03.196Z,27.00
2018-05-09T11:15:29.584Z,27.20
2018-05-09T11:17:56.767Z,26.50
2018-05-09T11:20:23.333Z,26.50
2018-05-09T11:22:49.741Z,26.50
2018-05-09T11:25:16.264Z,26.70
2018-05-09T11:27:42.717Z,25.50
2018-05-09T11:30:09.115Z,25.00
2018-05-09T11:32:36.440Z,24.70
2018-05-09T11:35:02.873Z,24.80
2018-05-09T11:37:29.323Z,24.90
2018-05-09T11:39:56.468Z,24.50
2018-05-09T11:42:23.697Z,25.10
2018-05-09T11:44:50.162Z,25.10
2018-05-09T11:47:16.626Z,26.20
2018-05-09T11:49:43.064Z,25.40
2018-05-09T11:52:09.628Z,26.50
2018-05-09T11:54:36.104Z,27.80
2018-05-09T11:57:02.531Z,28.50
2018-05-09T11:59:29.732Z,27.00
2018-05-09T12:01:56.198Z,27.00
2018-05-09T12:04:23.413Z,25.30
2018-05-09T12:06:50.365Z,25.30
2018-05-09T12:09:16.763Z,25.20
2018-05-09T12:11:43.259Z,24.90
2018-05-09T12:14:10.522Z,23.70
2018-05-09T12:16:37.699Z,24.50
2018-05-09T12:19:04.116Z,24.40
2018-05-09T12:21:30.573Z,24.70
2018-05-09T12:23:57.000Z,24.80
2018-05-09T12:26:24.790Z,25.10
2018-05-09T12:28:51.299Z,25.90
2018-05-09T12:31:17.731Z,26.60
2018-05-09T12:33:44.250Z,28.20
2018-05-09T12:36:10.695Z,28.20
2018-05-09T12:38:37.253Z,28.00
2018-05-09T12:41:03.672Z,27.40
2018-05-09T12:43:30.141Z,26.70
2018-05-09T12:45:56.584Z,27.10
2018-05-09T12:48:23.059Z,27.40
2018-05-09T12:50:49.503Z,27.80
2018-05-09T12:53:16.182Z,27.80
2018-05-09T12:55:42.678Z,29.20
2018-05-09T12:58:09.116Z,30.70
2018-05-09T13:00:35.606Z,29.50
2018-05-09T13:03:02.698Z,29.20
2018-05-09T13:05:29.214Z,28.90
2018-05-09T13:07:55.792Z,28.40
2018-05-09T13:10:22.276Z,26.70
2018-05-09T13:12:48.809Z,25.90
2018-05-09T13:15:15.259Z,25.50
2018-05-09T13:17:41.652Z,25.00
2018-05-09T13:20:08.846Z,26.10
2018-05-09T13:22:35.262Z,26.10
2018-05-09T13:25:01.727Z,28.50
2018-05-09T13:27:28.195Z,28.70
2018-05-09T13:29:55.335Z,27.20
2018-05-09T13:32:21.740Z,27.20
2018-05-09T13:34:48.603Z,25.60
2018-05-09T13:37:15.064Z,24.70
2018-05-09T13:39:43.561Z,22.70
2018-05-09T13:42:09.971Z,22.70
2018-05-09T13:44:37.146Z,22.80
2018-05-09T13:47:03.689Z,22.70
2018-05-09T13:49:30.097Z,22.70
2018-05-09T13:51:56.675Z,24.40
2018-05-09T13:54:23.178Z,26.60
2018-05-09T13:56:49.693Z,28.10
2018-05-09T13:59:16.886Z,29.60
2018-05-09T14:01:43.372Z,29.60
2018-05-09T14:04:10.548Z,32.80
2018-05-09T14:06:36.957Z,32.70
2018-05-09T14:09:04.160Z,35.00
2018-05-09T14:11:30.651Z,34.90
2018-05-09T14:13:57.157Z,33.20
2018-05-09T14:16:23.710Z,32.40
2018-05-09T14:18:50.979Z,30.40
2018-05-09T14:21:17.381Z,30.30
2018-05-09T14:23:44.517Z,27.30
2018-05-09T14:26:11.024Z,27.30
2018-05-09T14:28:37.449Z,25.00
2018-05-09T14:31:04.042Z,24.10
2018-05-09T14:33:31.281Z,26.80
2018-05-09T14:35:58.556Z,27.20
2018-05-09T14:38:24.955Z,27.20
2018-05-09T14:40:51.464Z,26.50
2018-05-09T14:43:18.614Z,26.10
2018-05-09T14:45:45.124Z,26.10
2018-05-09T14:48:11.635Z,26.90
2018-05-09T14:50:38.531Z,27.80
2018-05-09T14:53:05.016Z,28.50
2018-05-09T14:55:31.443Z,28.90
2018-05-09T14:57:57.931Z,28.00
2018-05-09T15:00:24.404Z,26.00
2018-05-09T15:02:51.590Z,24.10
2018-05-09T15:05:18.038Z,24.00
2018-05-09T15:07:44.456Z,25.90
2018-05-09T15:10:10.949Z,27.70
2018-05-09T15:12:38.119Z,28.50
2018-05-09T15:15:05.658Z,28.50
2018-05-09T15:17:32.787Z,27.80
2018-05-09T15:19:59.199Z,27.70
2018-05-09T15:22:25.592Z,28.20
2018-05-09T15:24:52.083Z,27.20
2018-05-09T15:27:18.489Z,28.10
2018-05-09T15:29:44.960Z,28.80
2018-05-09T15:32:12.153Z,27.40
2018-05-09T15:34:38.672Z,27.40
2018-05-09T15:37:05.081Z,26.90
2018-05-09T15:39:32.293Z,28.10
2018-05-09T15:41:58.676Z,28.00
2018-05-09T15:47:21.775Z,26.70
2018-05-09T15:49:48.336Z,26.50
2018-05-09T15:52:14.721Z,25.50
2018-05-09T15:54:41.327Z,24.30
2018-05-09T15:57:07.746Z,24.20
2018-05-09T15:59:34.137Z,25.10
2018-05-09T16:02:00.570Z,24.70
2018-05-09T16:04:26.983Z,24.40
2018-05-09T16:06:53.408Z,23.80
2018-05-09T16:09:19.897Z,23.90
2018-05-09T16:11:46.296Z,23.80
2018-05-09T16:14:12.784Z,23.70
2018-05-09T16:16:39.160Z,23.90
2018-05-09T16:19:05.574Z,24.10
2018-05-09T16:21:31.971Z,24.40
2018-05-09T16:23:58.414Z,24.50
2018-05-09T16:26:24.816Z,24.10
2018-05-09T16:28:51.243Z,24.10
2018-05-09T16:31:17.660Z,23.90
2018-05-09T16:33:44.081Z,23.30
2018-05-09T16:36:10.578Z,23.30
2018-05-09T16:38:36.940Z,23.50
2018-05-09T16:41:03.412Z,23.40
2018-05-09T16:43:29.856Z,23.70
2018-05-09T16:45:56.327Z,23.50
2018-05-09T16:48:22.748Z,23.40
2018-05-09T16:50:49.920Z,23.30
2018-05-09T16:53:16.407Z,23.30
2018-05-09T16:55:42.847Z,23.30
2018-05-09T16:58:09.340Z,23.20
2018-05-09T17:00:35.831Z,23.20
2018-05-09T17:03:02.953Z,23.10
2018-05-09T17:05:29.484Z,23.10
2018-05-09T17:07:55.988Z,22.80
2018-05-09T17:10:22.479Z,22.60
2018-05-09T17:12:49.609Z,22.80
2018-05-09T17:15:16.063Z,22.80
2018-05-09T17:17:43.268Z,22.60
2018-05-09T17:20:09.676Z,22.60
2018-05-09T17:22:36.127Z,22.50
2018-05-09T17:25:02.512Z,22.50
2018-05-09T17:27:29.788Z,22.40
2018-05-09T17:29:56.226Z,22.40
2018-05-09T17:32:22.679Z,22.30
2018-05-09T17:34:49.103Z,22.50
2018-05-09T17:37:16.280Z,22.20
2018-05-09T17:39:42.727Z,22.20
2018-05-09T17:42:09.213Z,22.10
2018-05-09T17:44:35.658Z,21.80
2018-05-09T17:47:02.113Z,21.50
2018-05-09T17:49:28.548Z,21.50
2018-05-09T17:51:54.977Z,21.50
2018-05-09T17:54:21.405Z,21.50
2018-05-09T17:56:47.833Z,21.50
2018-05-09T17:59:14.285Z,21.40
2018-05-09T18:01:41.314Z,21.10
2018-05-09T18:04:07.801Z,21.10
2018-05-09T18:06:34.264Z,20.80
2018-05-09T18:09:00.688Z,20.70
2018-05-09T18:11:27.160Z,20.60
2018-05-09T18:13:53.621Z,20.50
2018-05-09T18:16:21.951Z,20.50
2018-05-09T18:18:48.382Z,20.20
2018-05-09T18:21:15.412Z,19.90
2018-05-09T18:23:41.994Z,19.70
2018-05-09T18:26:08.420Z,19.70
2018-05-09T18:28:34.866Z,19.70
2018-05-09T18:31:01.318Z,19.80
2018-05-09T18:33:27.838Z,19.70
2018-05-09T18:35:54.247Z,19.60
2018-05-09T18:38:20.787Z,19.50
2018-05-09T18:40:47.239Z,19.40
2018-05-09T18:43:14.406Z,19.40
2018-05-09T18:45:40.936Z,19.40
2018-05-09T18:48:07.423Z,19.50
2018-05-09T18:50:40.238Z,19.50
2018-05-09T18:53:07.573Z,19.60
2018-05-09T18:55:33.989Z,19.60
2018-05-09T18:58:00.481Z,19.50
2018-05-09T19:00:26.948Z,19.50
2018-05-09T19:02:53.411Z,19.50
2018-05-09T19:05:20.576Z,19.30
2018-05-09T19:07:47.866Z,19.30
2018-05-09T19:10:14.371Z,19.30
2018-05-09T19:12:40.840Z,19.20
2018-05-09T19:15:07.259Z,19.10
2018-05-09T19:17:33.789Z,19.00
2018-05-09T19:20:00.204Z,18.90
2018-05-09T19:22:26.634Z,18.90
2018-05-09T19:24:53.083Z,18.70
2018-05-09T19:27:19.624Z,18.60
2018-05-09T19:29:46.051Z,18.50
2018-05-09T19:32:12.600Z,18.30
2018-05-09T19:34:39.110Z,18.20
2018-05-09T19:37:05.570Z,18.20
2018-05-09T19:39:32.025Z,18.20
2018-05-09T19:41:58.477Z,18.10
2018-05-09T19:44:25.699Z,18.00
2018-05-09T19:46:52.144Z,18.00
2018-05-09T19:49:18.681Z,18.00
2018-05-09T19:51:45.136Z,18.00
2018-05-09T19:54:12.368Z,17.80
2018-05-09T19:56:38.805Z,17.80
2018-05-09T19:59:05.294Z,17.60
2018-05-09T20:01:34.382Z,17.50
2018-05-09T20:04:00.850Z,17.40
2018-05-09T20:06:27.341Z,17.30
2018-05-09T20:08:53.965Z,17.20
2018-05-09T20:11:20.427Z,17.20
2018-05-09T20:13:47.104Z,17.30
2018-05-09T20:16:14.287Z,16.90
2018-05-09T20:18:40.768Z,16.90
2018-05-09T20:21:07.303Z,16.70
2018-05-09T20:23:33.734Z,16.70
2018-05-09T20:26:00.343Z,16.70
2018-05-09T20:28:26.825Z,16.60
2018-05-09T20:31:01.705Z,16.70
2018-05-09T20:33:28.998Z,16.80
2018-05-09T20:35:55.952Z,16.90
2018-05-09T20:38:22.636Z,16.90
2018-05-09T20:40:49.229Z,16.90
2018-05-09T20:43:15.663Z,16.90
2018-05-09T20:45:42.224Z,16.70
2018-05-09T20:48:08.690Z,16.40
2018-05-09T20:50:35.331Z,16.20
2018-05-09T20:53:01.846Z,16.10
2018-05-09T20:55:28.516Z,16.20
2018-05-09T20:57:54.983Z,16.30
2018-05-09T21:00:22.197Z,16.30
2018-05-09T21:02:48.672Z,16.30
2018-05-09T21:05:15.875Z,16.50
2018-05-09T21:07:54.569Z,16.40
2018-05-09T21:10:21.019Z,16.40
2018-05-09T21:12:47.408Z,16.20
2018-05-09T21:15:14.633Z,16.00
2018-05-09T21:17:41.263Z,16.00
2018-05-09T21:20:07.806Z,16.00
2018-05-09T21:22:34.436Z,15.90
2018-05-09T21:25:00.860Z,15.60
2018-05-09T21:27:27.287Z,15.70
2018-05-09T21:29:53.791Z,15.70
2018-05-09T21:32:20.217Z,15.60
2018-05-09T21:34:46.663Z,15.60
2018-05-09T21:37:13.073Z,15.60
2018-05-09T21:39:39.555Z,15.50
2018-05-09T21:42:05.948Z,15.50
2018-05-09T21:44:32.405Z,15.40
2018-05-09T21:46:58.836Z,15.40
2018-05-09T21:49:25.324Z,15.30
2018-05-09T21:51:52.494Z,15.10
2018-05-09T21:54:18.928Z,15.10
2018-05-09T21:56:45.363Z,15.00
2018-05-09T21:59:11.792Z,15.10
2018-05-09T22:01:38.255Z,15.00
2018-05-09T22:04:04.708Z,14.80
2018-05-09T22:06:31.150Z,14.90
2018-05-09T22:08:57.656Z,14.70
2018-05-09T22:11:24.104Z,14.60
2018-05-09T22:13:50.620Z,14.60
2018-05-09T22:16:17.847Z,14.40
2018-05-09T22:18:44.276Z,14.30
2018-05-09T22:21:10.827Z,14.40
2018-05-09T22:23:37.271Z,14.40
2018-05-09T22:26:03.796Z,14.40
2018-05-09T22:28:30.275Z,14.20
2018-05-09T22:30:57.448Z,14.10
2018-05-09T22:33:24.071Z,14.00
2018-05-09T22:35:51.268Z,13.90
2018-05-09T22:38:17.696Z,13.90
2018-05-09T22:40:44.105Z,13.90
2018-05-09T22:43:10.537Z,13.80
2018-05-09T22:45:36.952Z,13.70
2018-05-09T22:48:04.133Z,13.50
2018-05-09T22:50:30.590Z,13.50
2018-05-09T22:52:57.064Z,13.40
2018-05-09T22:55:24.251Z,13.30
2018-05-09T22:57:57.705Z,13.30
2018-05-09T23:00:24.888Z,13.20
2018-05-09T23:02:51.324Z,13.20
2018-05-09T23:05:17.757Z,13.20
2018-05-09T23:07:44.228Z,13.10
2018-05-09T23:10:10.781Z,13.10
2018-05-09T23:12:37.143Z,12.90
2018-05-09T23:15:03.695Z,12.60
2018-05-09T23:17:30.121Z,12.50
2018-05-09T23:19:56.527Z,12.50
2018-05-09T23:22:23.760Z,12.60
2018-05-09T23:24:50.224Z,12.60
2018-05-09T23:27:16.665Z,12.60
2018-05-09T23:29:43.127Z,12.70
2018-05-09T23:32:09.556Z,12.60
2018-05-09T23:34:36.031Z,12.60
2018-05-09T23:37:03.214Z,12.60
2018-05-09T23:39:29.941Z,12.60
2018-05-09T23:41:56.378Z,12.60
2018-05-09T23:44:22.855Z,12.60
2018-05-09T23:46:49.308Z,12.70
2018-05-09T23:49:15.729Z,12.70
2018-05-09T23:51:42.226Z,12.60
2018-05-09T23:54:08.652Z,12.40
2018-05-09T23:56:35.120Z,12.40
2018-05-09T23:59:01.632Z,12.30
